Neptune Ithaki — SVBS3 — position and weather

sailwx.info

Track history (hours):
 
Tides and Currents Weather Stations Pressure Air Temp Water Temp Dewpoint Dewpoint Depression Visibility Wind Speed Wind Dir Waves Ship Positions

Neptune Ithaki

Last reported at 2018-Feb-22 23:59 UTC. Time now 2018-Feb-23 00:42 UTC.
Position N 37°04' E 023°29'.

Length 169 m; draft 8.4 m.

Type: Cargo ship. MMSI: 241242000.

Date/timePositionNaut miles runAvg speedWind from/ knotsBaromVisibWave heightAir tempDewpointWater temp
2018-Feb-22 23:59N 37°04' E 023°29'  
2018-Feb-20 02:43N 41°11' E 002°24'416.9
2018-Feb-20 02:30N 41°13' E 002°20'816.0
2018-Feb-20 02:00N 41°17' E 002°11'4 7.4
2018-Feb-20 01:30N 41°21' E 002°09'1 1.2
2018-Feb-20 00:59N 41°20' E 002°09'0 0.0
2018-Feb-20 00:29N 41°20' E 002°09'0 0.0
2018-Feb-19 23:59N 41°20' E 002°09'0 0.0
2018-Feb-19 23:29N 41°20' E 002°09'0 0.0
2018-Feb-19 22:59N 41°20' E 002°09'0 0.0
2018-Feb-19 22:29N 41°20' E 002°09'0 0.0
2018-Feb-19 21:59N 41°20' E 002°09'0 0.0
2018-Feb-19 21:23N 41°20' E 002°09'0 0.0
2018-Feb-19 20:59N 41°20' E 002°09'0 0.0
2018-Feb-19 20:29N 41°20' E 002°09'0 0.0
2018-Feb-19 19:59N 41°20' E 002°09'0 0.0
2018-Feb-19 19:29N 41°20' E 002°09'0 0.0
2018-Feb-19 18:59N 41°20' E 002°09'0 0.0
2018-Feb-19 18:29N 41°20' E 002°09'0 0.0
2018-Feb-19 17:59N 41°20' E 002°09'0 0.0
2018-Feb-19 17:29N 41°20' E 002°09'0 0.0
2018-Feb-19 16:59N 41°20' E 002°09'0 0.0
2018-Feb-19 16:26N 41°20' E 002°09'0 0.0
2018-Feb-19 15:59N 41°20' E 002°09'0 0.0
2018-Feb-19 15:29N 41°20' E 002°09'0 0.0
2018-Feb-19 14:59N 41°20' E 002°09'0 0.0
2018-Feb-19 14:29N 41°20' E 002°09'0 0.0
2018-Feb-19 13:59N 41°20' E 002°09'0 0.0
2018-Feb-19 13:29N 41°20' E 002°09'0 0.0
2018-Feb-19 12:59N 41°20' E 002°09'0 0.0
2018-Feb-19 12:29N 41°20' E 002°09'0 0.0
2018-Feb-19 10:35N 41°20' E 002°09'0 0.0
2018-Feb-19 10:29N 41°20' E 002°09'0 0.0
2018-Feb-19 09:59N 41°20' E 002°09'0 0.0
2018-Feb-19 09:29N 41°20' E 002°09'11 1.5
2018-Feb-19 02:14N 41°10' E 002°04'313.4
2018-Feb-19 02:00N 41°07' E 002°01'613.2
2018-Feb-19 01:30N 41°02' E 001°56'713.3
2018-Feb-19 00:58N 40°57' E 001°49'613.5
2018-Feb-19 00:30N 40°52' E 001°44'11314.2
2018-Feb-18 16:31N 39°34' W 000°03'114.9
2018-Feb-18 16:26N 39°33' W 000°04'914.7
2018-Feb-18 15:48N 39°27' W 000°12'512.2
2018-Feb-18 15:25N 39°24' W 000°17'0 0.0
2018-Feb-18 11:09N 39°23' W 000°17'0 0.0
2018-Feb-18 10:48N 39°23' W 000°17'0 0.0
2018-Feb-18 09:18N 39°23' W 000°17'0 0.0
2018-Feb-18 08:06N 39°23' W 000°17'0 0.1
2018-Feb-18 08:00N 39°23' W 000°17'0 0.0
2018-Feb-18 06:54N 39°23' W 000°17'0 0.0
2018-Feb-18 06:18N 39°23' W 000°17'0 0.0
2018-Feb-18 05:33N 39°23' W 000°17'0 0.2
2018-Feb-18 05:24N 39°23' W 000°17'0 0.0
2018-Feb-18 04:54N 39°23' W 000°17'0 0.0
2018-Feb-18 04:30N 39°23' W 000°17'0 0.0
2018-Feb-18 03:18N 39°23' W 000°17'0 0.1
2018-Feb-18 02:48N 39°23' W 000°17'0 0.0
2018-Feb-18 02:30N 39°23' W 000°17'0 0.0
2018-Feb-18 02:00N 39°23' W 000°17'0 0.0
2018-Feb-18 01:24N 39°23' W 000°17'0 0.0
2018-Feb-18 00:57N 39°23' W 000°17'0 0.0
2018-Feb-18 00:30N 39°23' W 000°17'0 0.0
2018-Feb-18 00:00N 39°23' W 000°17'0 0.0
2018-Feb-17 23:30N 39°24' W 000°17'0 0.0
2018-Feb-17 22:57N 39°24' W 000°17'0 0.0
2018-Feb-17 19:57N 39°24' W 000°17'1 1.5
2018-Feb-17 19:30N 39°24' W 000°17'2 4.3
2018-Feb-17 19:00N 39°26' W 000°18'0 0.0
2018-Feb-17 18:27N 39°26' W 000°18'0 0.0
2018-Feb-17 18:00N 39°26' W 000°18'0 0.0
2018-Feb-17 17:30N 39°26' W 000°18'0 0.0
2018-Feb-17 16:57N 39°26' W 000°18'0 0.0
2018-Feb-17 16:30N 39°26' W 000°18'0 0.0
2018-Feb-17 16:00N 39°26' W 000°18'0 0.0
2018-Feb-17 15:30N 39°26' W 000°18'0 0.0
2018-Feb-17 15:00N 39°26' W 000°18'0 0.0
2018-Feb-17 14:30N 39°26' W 000°18'0 0.0
2018-Feb-17 14:00N 39°26' W 000°18'0 0.0
2018-Feb-17 13:30N 39°26' W 000°18'0 0.0
2018-Feb-17 13:00N 39°26' W 000°18'0 0.1
2018-Feb-17 12:30N 39°26' W 000°18'2 4.2
2018-Feb-17 12:00N 39°25' W 000°16'714.1
2018-Feb-17 11:29N 39°30' W 000°10'13417.8
2018-Feb-17 04:00N 40°60' E 001°60'918.5
2018-Feb-17 03:30N 41°06' E 002°09'917.9
2018-Feb-17 03:00N 41°12' E 002°18'918.3
2018-Feb-17 02:30N 41°18' E 002°27'918.2
2018-Feb-17 02:00N 41°24' E 002°36'138 4.1
2018-Feb-15 16:43N 43°15' E 004°25'418.0
2018-Feb-15 16:30N 43°15' E 004°30'917.6
2018-Feb-15 16:01N 43°14' E 004°42'917.5
2018-Feb-15 15:31N 43°12' E 004°54'1016.9
2018-Feb-15 14:56N 43°15' E 005°07'915.8
2018-Feb-15 14:22N 43°20' E 005°17'3 7.1
2018-Feb-15 13:59N 43°20' E 005°21'1 0.1
2018-Feb-15 07:21N 43°20' E 005°21'0 0.0
2018-Feb-15 06:21N 43°20' E 005°21'0 0.0
2018-Feb-15 05:57N 43°20' E 005°21'0 0.2
2018-Feb-15 05:31N 43°20' E 005°21'3 5.1
2018-Feb-15 05:01N 43°21' E 005°18'5 9.0
2018-Feb-15 04:30N 43°18' E 005°13'510.4
2018-Feb-15 04:00N 43°13' E 005°09'52114.8
2018-Feb-13 16:45N 38°39' E 014°55'415.4
2018-Feb-13 16:29N 38°37' E 014°60'915.6
2018-Feb-13 15:55N 38°33' E 015°10'715.3
2018-Feb-13 15:27N 38°30' E 015°18'715.4
2018-Feb-13 14:59N 38°26' E 015°26'815.6
2018-Feb-13 14:28N 38°22' E 015°35'715.1
2018-Feb-13 14:00N 38°17' E 015°41'612.1
2018-Feb-13 13:30N 38°13' E 015°37'814.7
2018-Feb-13 12:59N 38°05' E 015°36'814.5
2018-Feb-13 12:28N 37°58' E 015°37'816.3
2018-Feb-13 12:01N 37°52' E 015°44'1115.8
2018-Feb-13 11:18N 37°47' E 015°57'515.6
2018-Feb-13 11:01N 37°46' E 016°03'  
Track history (hours):
 
Tides and Currents Weather Stations Pressure Air Temp Water Temp Dewpoint Dewpoint Depression Visibility Wind Speed Wind Dir Waves Ship Positions

Neptune Ithaki

Last reported at 2018-Feb-22 23:59 UTC. Time now 2018-Feb-23 00:42 UTC.
Position N 37°04' E 023°29'.

Length 169 m; draft 8.4 m.

Type: Cargo ship. MMSI: 241242000.

Date/timePositionNaut miles runAvg speedWind from/ knotsBaromVisibWave heightAir tempDewpointWater temp
2018-Feb-22 23:59N 37°04' E 023°29'  
2018-Feb-20 02:43N 41°11' E 002°24'416.9
2018-Feb-20 02:30N 41°13' E 002°20'816.0
2018-Feb-20 02:00N 41°17' E 002°11'4 7.4
2018-Feb-20 01:30N 41°21' E 002°09'1 1.2
2018-Feb-20 00:59N 41°20' E 002°09'0 0.0
2018-Feb-20 00:29N 41°20' E 002°09'0 0.0
2018-Feb-19 23:59N 41°20' E 002°09'0 0.0
2018-Feb-19 23:29N 41°20' E 002°09'0 0.0
2018-Feb-19 22:59N 41°20' E 002°09'0 0.0
2018-Feb-19 22:29N 41°20' E 002°09'0 0.0
2018-Feb-19 21:59N 41°20' E 002°09'0 0.0
2018-Feb-19 21:23N 41°20' E 002°09'0 0.0
2018-Feb-19 20:59N 41°20' E 002°09'0 0.0
2018-Feb-19 20:29N 41°20' E 002°09'0 0.0
2018-Feb-19 19:59N 41°20' E 002°09'0 0.0
2018-Feb-19 19:29N 41°20' E 002°09'0 0.0
2018-Feb-19 18:59N 41°20' E 002°09'0 0.0
2018-Feb-19 18:29N 41°20' E 002°09'0 0.0
2018-Feb-19 17:59N 41°20' E 002°09'0 0.0
2018-Feb-19 17:29N 41°20' E 002°09'0 0.0
2018-Feb-19 16:59N 41°20' E 002°09'0 0.0
2018-Feb-19 16:26N 41°20' E 002°09'0 0.0
2018-Feb-19 15:59N 41°20' E 002°09'0 0.0
2018-Feb-19 15:29N 41°20' E 002°09'0 0.0
2018-Feb-19 14:59N 41°20' E 002°09'0 0.0
2018-Feb-19 14:29N 41°20' E 002°09'0 0.0
2018-Feb-19 13:59N 41°20' E 002°09'0 0.0
2018-Feb-19 13:29N 41°20' E 002°09'0 0.0
2018-Feb-19 12:59N 41°20' E 002°09'0 0.0
2018-Feb-19 12:29N 41°20' E 002°09'0 0.0
2018-Feb-19 10:35N 41°20' E 002°09'0 0.0
2018-Feb-19 10:29N 41°20' E 002°09'0 0.0
2018-Feb-19 09:59N 41°20' E 002°09'0 0.0
2018-Feb-19 09:29N 41°20' E 002°09'11 1.5
2018-Feb-19 02:14N 41°10' E 002°04'313.4
2018-Feb-19 02:00N 41°07' E 002°01'613.2
2018-Feb-19 01:30N 41°02' E 001°56'713.3
2018-Feb-19 00:58N 40°57' E 001°49'613.5
2018-Feb-19 00:30N 40°52' E 001°44'11314.2
2018-Feb-18 16:31N 39°34' W 000°03'114.9
2018-Feb-18 16:26N 39°33' W 000°04'914.7
2018-Feb-18 15:48N 39°27' W 000°12'512.2
2018-Feb-18 15:25N 39°24' W 000°17'0 0.0
2018-Feb-18 11:09N 39°23' W 000°17'0 0.0
2018-Feb-18 10:48N 39°23' W 000°17'0 0.0
2018-Feb-18 09:18N 39°23' W 000°17'0 0.0
2018-Feb-18 08:06N 39°23' W 000°17'0 0.1
2018-Feb-18 08:00N 39°23' W 000°17'0 0.0
2018-Feb-18 06:54N 39°23' W 000°17'0 0.0
2018-Feb-18 06:18N 39°23' W 000°17'0 0.0
2018-Feb-18 05:33N 39°23' W 000°17'0 0.2
2018-Feb-18 05:24N 39°23' W 000°17'0 0.0
2018-Feb-18 04:54N 39°23' W 000°17'0 0.0
2018-Feb-18 04:30N 39°23' W 000°17'0 0.0
2018-Feb-18 03:18N 39°23' W 000°17'0 0.1
2018-Feb-18 02:48N 39°23' W 000°17'0 0.0
2018-Feb-18 02:30N 39°23' W 000°17'0 0.0
2018-Feb-18 02:00N 39°23' W 000°17'0 0.0
2018-Feb-18 01:24N 39°23' W 000°17'0 0.0
2018-Feb-18 00:57N 39°23' W 000°17'0 0.0
2018-Feb-18 00:30N 39°23' W 000°17'0 0.0
2018-Feb-18 00:00N 39°23' W 000°17'0 0.0
2018-Feb-17 23:30N 39°24' W 000°17'0 0.0
2018-Feb-17 22:57N 39°24' W 000°17'0 0.0
2018-Feb-17 19:57N 39°24' W 000°17'1 1.5
2018-Feb-17 19:30N 39°24' W 000°17'2 4.3
2018-Feb-17 19:00N 39°26' W 000°18'0 0.0
2018-Feb-17 18:27N 39°26' W 000°18'0 0.0
2018-Feb-17 18:00N 39°26' W 000°18'0 0.0
2018-Feb-17 17:30N 39°26' W 000°18'0 0.0
2018-Feb-17 16:57N 39°26' W 000°18'0 0.0
2018-Feb-17 16:30N 39°26' W 000°18'0 0.0
2018-Feb-17 16:00N 39°26' W 000°18'0 0.0
2018-Feb-17 15:30N 39°26' W 000°18'0 0.0
2018-Feb-17 15:00N 39°26' W 000°18'0 0.0
2018-Feb-17 14:30N 39°26' W 000°18'0 0.0
2018-Feb-17 14:00N 39°26' W 000°18'0 0.0
2018-Feb-17 13:30N 39°26' W 000°18'0 0.0
2018-Feb-17 13:00N 39°26' W 000°18'0 0.1
2018-Feb-17 12:30N 39°26' W 000°18'2 4.2
2018-Feb-17 12:00N 39°25' W 000°16'714.1
2018-Feb-17 11:29N 39°30' W 000°10'13417.8
2018-Feb-17 04:00N 40°60' E 001°60'918.5
2018-Feb-17 03:30N 41°06' E 002°09'917.9
2018-Feb-17 03:00N 41°12' E 002°18'918.3
2018-Feb-17 02:30N 41°18' E 002°27'918.2
2018-Feb-17 02:00N 41°24' E 002°36'138 4.1
2018-Feb-15 16:43N 43°15' E 004°25'418.0
2018-Feb-15 16:30N 43°15' E 004°30'917.6
2018-Feb-15 16:01N 43°14' E 004°42'917.5
2018-Feb-15 15:31N 43°12' E 004°54'1016.9
2018-Feb-15 14:56N 43°15' E 005°07'915.8
2018-Feb-15 14:22N 43°20' E 005°17'3 7.1
2018-Feb-15 13:59N 43°20' E 005°21'1 0.1
2018-Feb-15 07:21N 43°20' E 005°21'0 0.0
2018-Feb-15 06:21N 43°20' E 005°21'0 0.0
2018-Feb-15 05:57N 43°20' E 005°21'0 0.2
2018-Feb-15 05:31N 43°20' E 005°21'3 5.1
2018-Feb-15 05:01N 43°21' E 005°18'5 9.0
2018-Feb-15 04:30N 43°18' E 005°13'510.4
2018-Feb-15 04:00N 43°13' E 005°09'52114.8
2018-Feb-13 16:45N 38°39' E 014°55'415.4
2018-Feb-13 16:29N 38°37' E 014°60'915.6
2018-Feb-13 15:55N 38°33' E 015°10'715.3
2018-Feb-13 15:27N 38°30' E 015°18'715.4
2018-Feb-13 14:59N 38°26' E 015°26'815.6
2018-Feb-13 14:28N 38°22' E 015°35'715.1
2018-Feb-13 14:00N 38°17' E 015°41'612.1
2018-Feb-13 13:30N 38°13' E 015°37'814.7
2018-Feb-13 12:59N 38°05' E 015°36'814.5
2018-Feb-13 12:28N 37°58' E 015°37'816.3
2018-Feb-13 12:01N 37°52' E 015°44'1115.8
2018-Feb-13 11:18N 37°47' E 015°57'515.6
2018-Feb-13 11:01N 37°46' E 016°03'  

Dump ship's entire track history